createdAt,value
2023-03-22T00:00:29.225Z,5.73
2023-03-22T00:02:58.179Z,5.72
2023-03-22T00:05:26.539Z,5.72
2023-03-22T00:08:14.638Z,5.68
2023-03-22T00:10:44.285Z,5.66
2023-03-22T00:13:12.998Z,5.65
2023-03-22T00:15:44.825Z,5.65
2023-03-22T00:18:21.766Z,5.66
2023-03-22T00:20:50.843Z,5.67
2023-03-22T00:23:19.014Z,5.68
2023-03-22T00:25:47.848Z,5.68
2023-03-22T00:28:16.579Z,5.65
2023-03-22T00:30:55.875Z,5.64
2023-03-22T00:33:25.701Z,5.63
2023-03-22T00:35:55.028Z,5.62
2023-03-22T00:38:35.953Z,5.63
2023-03-22T00:41:13.716Z,5.66
2023-03-22T00:43:46.430Z,5.70
2023-03-22T00:46:15.026Z,5.74
2023-03-22T00:48:43.722Z,5.78
2023-03-22T00:51:12.421Z,5.82
2023-03-22T00:53:43.358Z,5.84
2023-03-22T00:56:16.070Z,5.86
2023-03-22T00:58:48.412Z,5.89
2023-03-22T01:01:17.608Z,5.91
2023-03-22T01:03:50.190Z,5.95
2023-03-22T01:06:18.708Z,5.98
2023-03-22T01:08:47.129Z,6.00
2023-03-22T01:11:19.145Z,6.02
2023-03-22T01:13:48.183Z,6.05
2023-03-22T01:16:16.502Z,6.07
2023-03-22T01:18:44.862Z,6.11
2023-03-22T01:21:13.231Z,6.16
2023-03-22T01:23:41.636Z,6.20
2023-03-22T01:26:09.844Z,6.23
2023-03-22T01:28:40.708Z,6.26
2023-03-22T01:31:08.994Z,6.29
2023-03-22T01:33:37.977Z,6.30
2023-03-22T01:36:06.623Z,6.28
2023-03-22T01:38:35.913Z,6.24
2023-03-22T01:41:04.574Z,6.19
2023-03-22T01:43:35.709Z,6.16
2023-03-22T01:46:04.991Z,6.15
2023-03-22T01:48:34.876Z,6.14
2023-03-22T01:51:05.342Z,6.09
2023-03-22T01:53:42.174Z,6.04
2023-03-22T01:56:10.535Z,6.03
2023-03-22T01:58:39.065Z,6.01
2023-03-22T02:01:07.851Z,5.98
2023-03-22T02:04:08.128Z,5.91
2023-03-22T02:06:38.474Z,5.84
2023-03-22T02:09:11.475Z,5.73
2023-03-22T02:11:41.796Z,5.62
2023-03-22T02:14:28.675Z,5.52
2023-03-22T02:17:15.019Z,5.48
2023-03-22T02:20:10.254Z,5.46
2023-03-22T02:22:41.946Z,5.44
2023-03-22T02:25:17.773Z,5.42
2023-03-22T02:28:04.717Z,5.39
2023-03-22T02:30:36.439Z,5.33
2023-03-22T02:33:25.168Z,5.30
2023-03-22T02:36:06.441Z,5.26
2023-03-22T02:38:52.904Z,5.22
2023-03-22T02:41:39.592Z,5.19
2023-03-22T02:44:13.728Z,5.16
2023-03-22T02:46:43.752Z,5.15
2023-03-22T02:49:33.380Z,5.13
2023-03-22T02:52:03.825Z,5.11
2023-03-22T02:54:37.067Z,5.09
2023-03-22T02:57:08.128Z,5.07
2023-03-22T02:59:38.419Z,5.05
2023-03-22T03:02:06.844Z,5.04
2023-03-22T03:04:36.516Z,5.02
2023-03-22T03:07:07.289Z,4.99
2023-03-22T03:09:36.081Z,4.96
2023-03-22T03:12:23.944Z,4.93
2023-03-22T03:14:54.536Z,4.90
2023-03-22T03:17:24.773Z,4.88
2023-03-22T03:20:08.691Z,4.86
2023-03-22T03:22:40.275Z,4.83
2023-03-22T03:25:11.636Z,4.82
2023-03-22T03:27:41.122Z,4.80
2023-03-22T03:30:11.591Z,4.78
2023-03-22T03:32:59.584Z,4.76
2023-03-22T03:35:38.608Z,4.74
2023-03-22T03:38:08.944Z,4.73
2023-03-22T03:40:47.872Z,4.72
2023-03-22T03:43:16.620Z,4.72
2023-03-22T03:45:45.898Z,4.74
2023-03-22T03:48:18.913Z,4.76
2023-03-22T03:50:47.644Z,4.76
2023-03-22T03:53:17.024Z,4.73
2023-03-22T03:55:45.488Z,4.70
2023-03-22T03:58:16.374Z,4.68
2023-03-22T04:00:46.267Z,4.68
2023-03-22T04:03:34.852Z,4.70
2023-03-22T04:06:15.133Z,4.75
2023-03-22T04:08:47.019Z,4.81
2023-03-22T04:11:18.278Z,4.88
2023-03-22T04:13:50.424Z,4.94
2023-03-22T04:16:21.664Z,5.01
2023-03-22T04:18:52.929Z,5.10
2023-03-22T04:21:21.907Z,5.22
2023-03-22T04:23:59.963Z,5.36
2023-03-22T04:26:30.641Z,5.47
2023-03-22T04:29:32.336Z,5.64
2023-03-22T04:32:24.267Z,5.79
2023-03-22T04:34:53.460Z,5.94
2023-03-22T04:37:24.724Z,6.18
2023-03-22T04:40:16.671Z,6.56
2023-03-22T04:43:04.229Z,6.88
2023-03-22T04:45:58.410Z,7.24
2023-03-22T04:48:32.761Z,7.76
2023-03-22T04:51:04.573Z,8.28
2023-03-22T04:53:40.442Z,8.66
2023-03-22T04:56:12.646Z,8.83
2023-03-22T04:58:42.262Z,8.88
2023-03-22T05:01:15.601Z,8.96
2023-03-22T05:03:47.977Z,9.32
2023-03-22T05:06:17.504Z,9.72
2023-03-22T05:08:59.619Z,10.08
2023-03-22T05:11:28.399Z,10.35
2023-03-22T05:14:15.805Z,10.46
2023-03-22T05:16:46.951Z,10.49
2023-03-22T05:19:17.071Z,10.57
2023-03-22T05:21:49.248Z,10.73
2023-03-22T05:24:17.520Z,10.72
2023-03-22T05:26:47.488Z,10.61
2023-03-22T05:29:15.710Z,10.55
2023-03-22T05:32:07.628Z,10.59
2023-03-22T05:34:37.234Z,10.61
2023-03-22T05:37:24.714Z,10.54
2023-03-22T05:40:02.661Z,10.48
2023-03-22T05:42:37.861Z,10.57
2023-03-22T05:45:15.014Z,11.07
2023-03-22T05:47:44.712Z,11.70
2023-03-22T05:50:17.271Z,12.37
2023-03-22T05:52:46.671Z,13.07
2023-03-22T05:55:32.236Z,13.93
2023-03-22T05:58:05.401Z,14.85
2023-03-22T06:00:38.746Z,15.63
2023-03-22T06:03:23.017Z,16.34
2023-03-22T06:06:07.117Z,17.12
2023-03-22T06:09:10.698Z,17.90
2023-03-22T06:11:51.470Z,18.40
2023-03-22T06:14:20.589Z,18.58
2023-03-22T06:17:33.287Z,18.64
2023-03-22T06:20:01.992Z,18.57
2023-03-22T06:22:33.544Z,18.63
2023-03-22T06:25:01.966Z,18.79
2023-03-22T06:27:40.385Z,18.99
2023-03-22T06:30:09.589Z,19.00
2023-03-22T06:32:48.621Z,18.96
2023-03-22T06:35:17.172Z,18.79
2023-03-22T06:37:46.915Z,18.46
2023-03-22T06:40:15.522Z,18.27
2023-03-22T06:42:44.997Z,18.22
2023-03-22T06:45:16.657Z,18.48
2023-03-22T06:47:47.118Z,18.87
2023-03-22T06:50:38.483Z,19.51
2023-03-22T06:53:21.001Z,20.35
2023-03-22T06:55:50.167Z,20.94
2023-03-22T06:58:23.984Z,21.31
2023-03-22T07:00:52.409Z,21.65
2023-03-22T07:03:22.366Z,22.09
2023-03-22T07:05:53.714Z,22.70
2023-03-22T07:08:22.493Z,23.22
2023-03-22T07:10:53.001Z,23.69
2023-03-22T07:13:23.660Z,24.04
2023-03-22T07:15:57.523Z,24.16
2023-03-22T07:18:41.604Z,23.62
2023-03-22T07:21:10.042Z,23.35
2023-03-22T07:23:39.925Z,23.27
2023-03-22T07:26:13.548Z,22.91
2023-03-22T07:28:47.067Z,22.39
2023-03-22T07:31:17.020Z,21.99
2023-03-22T07:33:52.354Z,21.94
2023-03-22T07:36:24.019Z,22.37
2023-03-22T07:38:53.001Z,22.78
2023-03-22T07:41:30.372Z,23.42
2023-03-22T07:44:18.470Z,23.88
2023-03-22T07:47:30.596Z,24.42
2023-03-22T07:50:26.354Z,24.94
2023-03-22T07:52:57.825Z,25.26
2023-03-22T07:55:26.838Z,25.56
2023-03-22T07:57:55.258Z,25.66
2023-03-22T08:00:24.165Z,25.75
2023-03-22T08:03:02.770Z,25.86
2023-03-22T08:05:51.880Z,25.75
2023-03-22T08:08:20.867Z,25.54
2023-03-22T08:10:51.757Z,25.16
2023-03-22T08:13:20.625Z,24.90
2023-03-22T08:15:48.969Z,24.96
2023-03-22T08:18:21.891Z,25.39
2023-03-22T08:20:56.599Z,25.78
2023-03-22T08:23:40.495Z,26.08
2023-03-22T08:26:28.515Z,26.62
2023-03-22T08:29:01.508Z,27.10
2023-03-22T08:31:31.941Z,27.24
2023-03-22T08:34:00.481Z,26.97
2023-03-22T08:36:29.725Z,26.87
2023-03-22T08:39:01.717Z,27.05
2023-03-22T08:41:52.869Z,27.01
2023-03-22T08:44:21.634Z,26.79
2023-03-22T08:46:49.875Z,26.89
2023-03-22T08:49:18.169Z,27.24
2023-03-22T08:51:54.529Z,27.24
2023-03-22T08:54:37.096Z,27.02
2023-03-22T08:57:09.601Z,26.83
2023-03-22T09:00:01.290Z,26.64
2023-03-22T09:02:46.274Z,26.59
2023-03-22T09:05:14.836Z,26.31
2023-03-22T09:07:46.366Z,25.81
2023-03-22T09:10:25.023Z,25.50
2023-03-22T09:12:53.657Z,25.44
2023-03-22T09:15:22.033Z,25.65
2023-03-22T09:18:02.529Z,25.79
2023-03-22T09:20:31.375Z,25.77
2023-03-22T09:22:59.643Z,25.75
2023-03-22T09:25:28.812Z,25.59
2023-03-22T09:27:57.558Z,24.89
2023-03-22T09:30:30.535Z,24.36
2023-03-22T09:32:58.842Z,23.99
2023-03-22T09:35:27.142Z,23.61
2023-03-22T09:38:00.020Z,23.31
2023-03-22T09:40:32.206Z,23.08
2023-03-22T09:43:01.560Z,22.90
2023-03-22T09:45:38.759Z,22.88
2023-03-22T09:48:12.283Z,22.89
2023-03-22T09:50:46.710Z,22.92
2023-03-22T09:53:15.633Z,22.95
2023-03-22T09:55:50.231Z,23.00
2023-03-22T09:58:26.404Z,23.05
2023-03-22T10:01:02.420Z,22.98
2023-03-22T10:03:40.052Z,22.78
2023-03-22T10:06:08.668Z,22.54
2023-03-22T10:08:44.813Z,22.45
2023-03-22T10:11:17.216Z,22.38
2023-03-22T10:14:08.809Z,22.24
2023-03-22T10:16:37.558Z,21.87
2023-03-22T10:19:13.740Z,21.53
2023-03-22T10:21:42.595Z,21.27
2023-03-22T10:24:15.557Z,21.08
2023-03-22T10:26:45.353Z,20.74
2023-03-22T10:29:27.465Z,20.47
2023-03-22T10:31:55.803Z,20.29
2023-03-22T10:34:28.200Z,20.05
2023-03-22T10:36:57.220Z,19.68
2023-03-22T10:39:25.420Z,19.52
2023-03-22T10:41:56.336Z,19.54
2023-03-22T10:44:26.413Z,19.64
2023-03-22T10:46:59.551Z,19.67
2023-03-22T10:49:29.764Z,19.59
2023-03-22T10:52:00.140Z,19.56
2023-03-22T10:54:28.822Z,19.48
2023-03-22T10:56:57.358Z,19.51
2023-03-22T10:59:44.504Z,19.61
2023-03-22T11:02:22.385Z,19.64
2023-03-22T11:04:54.919Z,19.56
2023-03-22T11:07:27.989Z,19.72
2023-03-22T11:10:08.390Z,19.86
2023-03-22T11:12:40.134Z,19.61
2023-03-22T11:15:38.727Z,19.50
2023-03-22T11:18:16.630Z,19.15
2023-03-22T11:20:56.917Z,19.00
2023-03-22T11:23:27.096Z,19.20
2023-03-22T11:25:56.369Z,19.56
2023-03-22T11:28:29.087Z,19.75
2023-03-22T11:31:03.689Z,19.48
2023-03-22T11:33:34.252Z,19.12
2023-03-22T11:36:21.644Z,18.82
2023-03-22T11:38:50.429Z,18.68
2023-03-22T11:41:25.773Z,18.68
2023-03-22T11:43:54.868Z,18.69
2023-03-22T11:46:23.814Z,18.71
2023-03-22T11:48:52.436Z,18.60
2023-03-22T11:51:29.935Z,18.36
2023-03-22T11:54:02.464Z,18.24
2023-03-22T11:56:30.840Z,18.16
2023-03-22T11:59:04.210Z,18.12
2023-03-22T12:01:35.752Z,18.01
2023-03-22T12:04:05.471Z,17.79
2023-03-22T12:06:34.453Z,17.61
2023-03-22T12:09:07.131Z,17.45
2023-03-22T12:11:41.720Z,17.37
2023-03-22T12:14:37.466Z,17.26
2023-03-22T12:17:32.642Z,17.14
2023-03-22T12:20:08.769Z,17.10
2023-03-22T12:22:42.335Z,16.98
2023-03-22T12:25:17.559Z,16.86
2023-03-22T12:27:50.265Z,16.84
2023-03-22T12:30:23.195Z,16.83
2023-03-22T12:32:52.510Z,16.76
2023-03-22T12:35:28.376Z,16.74
2023-03-22T12:37:57.218Z,16.70
2023-03-22T12:40:29.365Z,16.64
2023-03-22T12:43:09.559Z,16.58
2023-03-22T12:45:44.360Z,16.41
2023-03-22T12:48:14.228Z,16.32
2023-03-22T12:50:44.118Z,16.38
2023-03-22T12:53:13.837Z,16.49
2023-03-22T12:55:42.884Z,16.46
2023-03-22T12:58:13.092Z,16.33
2023-03-22T13:00:53.335Z,16.19
2023-03-22T13:03:24.608Z,16.03
2023-03-22T13:06:01.296Z,15.95
2023-03-22T13:08:49.937Z,15.90
2023-03-22T13:11:26.903Z,15.88
2023-03-22T13:13:58.649Z,15.82
2023-03-22T13:16:42.403Z,15.79
2023-03-22T13:19:17.833Z,15.79
2023-03-22T13:21:48.092Z,15.74
2023-03-22T13:24:16.498Z,15.68
2023-03-22T13:26:49.556Z,15.65
2023-03-22T13:29:18.982Z,15.62
2023-03-22T13:31:54.048Z,15.54
2023-03-22T13:34:30.106Z,15.40
2023-03-22T13:36:58.642Z,15.32
2023-03-22T13:39:28.475Z,15.31
2023-03-22T13:42:13.638Z,15.31
2023-03-22T13:44:46.271Z,15.37
2023-03-22T13:47:31.728Z,15.45
2023-03-22T13:50:01.343Z,15.50
2023-03-22T13:52:49.886Z,15.54
2023-03-22T13:55:37.603Z,15.59
2023-03-22T13:58:08.017Z,15.63
2023-03-22T14:00:56.059Z,15.69
2023-03-22T14:03:26.939Z,15.72
2023-03-22T14:06:04.500Z,15.73
2023-03-22T14:08:35.648Z,15.75
2023-03-22T14:11:22.735Z,15.72
2023-03-22T14:14:00.778Z,15.68
2023-03-22T14:16:32.884Z,15.68
2023-03-22T14:19:01.975Z,15.67
2023-03-22T14:21:34.551Z,15.63
